sensor_id;sensor_type;location;lat;lon;timestamp;temperature;humidity
5978;DHT22;3015;51.390;12.256;2022-08-16T00:00:18;17.00;1.00
5978;DHT22;3015;51.390;12.256;2022-08-16T00:02:44;16.90;99.90
5978;DHT22;3015;51.390;12.256;2022-08-16T00:05:11;16.80;99.90
5978;DHT22;3015;51.390;12.256;2022-08-16T00:07:38;16.90;1.00
5978;DHT22;3015;51.390;12.256;2022-08-16T00:10:06;16.80;99.90
5978;DHT22;3015;51.390;12.256;2022-08-16T00:12:32;16.70;99.90
5978;DHT22;3015;51.390;12.256;2022-08-16T00:15:08;16.70;1.00
5978;DHT22;3015;51.390;12.256;2022-08-16T00:17:34;16.70;1.00
5978;DHT22;3015;51.390;12.256;2022-08-16T00:20:00;16.60;1.00
5978;DHT22;3015;51.390;12.256;2022-08-16T00:22:26;16.70;1.00
5978;DHT22;3015;51.390;12.256;2022-08-16T00:24:52;16.60;1.00
5978;DHT22;3015;51.390;12.256;2022-08-16T00:27:18;16.60;1.00
5978;DHT22;3015;51.390;12.256;2022-08-16T00:29:44;16.60;1.00
5978;DHT22;3015;51.390;12.256;2022-08-16T00:32:10;16.60;1.00
5978;DHT22;3015;51.390;12.256;2022-08-16T00:34:36;16.60;1.00
5978;DHT22;3015;51.390;12.256;2022-08-16T00:37:03;16.70;1.00
5978;DHT22;3015;51.390;12.256;2022-08-16T00:39:28;16.50;1.00
5978;DHT22;3015;51.390;12.256;2022-08-16T00:41:55;16.50;1.00
5978;DHT22;3015;51.390;12.256;2022-08-16T00:44:21;16.50;1.00
5978;DHT22;3015;51.390;12.256;2022-08-16T00:46:53;16.40;1.00
5978;DHT22;3015;51.390;12.256;2022-08-16T00:49:21;16.40;1.00
5978;DHT22;3015;51.390;12.256;2022-08-16T00:51:48;16.40;1.00
5978;DHT22;3015;51.390;12.256;2022-08-16T00:54:14;16.40;1.00
5978;DHT22;3015;51.390;12.256;2022-08-16T00:56:42;16.40;1.00
5978;DHT22;3015;51.390;12.256;2022-08-16T00:59:10;16.40;1.00
5978;DHT22;3015;51.390;12.256;2022-08-16T01:01:37;16.40;1.00
5978;DHT22;3015;51.390;12.256;2022-08-16T01:04:04;16.40;1.00
5978;DHT22;3015;51.390;12.256;2022-08-16T01:06:32;16.50;1.00
5978;DHT22;3015;51.390;12.256;2022-08-16T01:09:01;16.50;1.00
5978;DHT22;3015;51.390;12.256;2022-08-16T01:11:32;16.50;1.00
5978;DHT22;3015;51.390;12.256;2022-08-16T01:14:04;16.50;1.00
5978;DHT22;3015;51.390;12.256;2022-08-16T01:16:31;16.50;1.00
5978;DHT22;3015;51.390;12.256;2022-08-16T01:19:12;16.60;1.00
5978;DHT22;3015;51.390;12.256;2022-08-16T01:21:56;16.60;1.00
5978;DHT22;3015;51.390;12.256;2022-08-16T01:27:43;16.40;1.00
5978;DHT22;3015;51.390;12.256;2022-08-16T01:30:10;16.40;1.00
5978;DHT22;3015;51.390;12.256;2022-08-16T01:32:38;16.30;1.00
5978;DHT22;3015;51.390;12.256;2022-08-16T01:35:20;16.30;1.00
5978;DHT22;3015;51.390;12.256;2022-08-16T01:37:51;16.30;1.00
5978;DHT22;3015;51.390;12.256;2022-08-16T01:40:19;16.30;1.00
5978;DHT22;3015;51.390;12.256;2022-08-16T01:42:46;16.20;1.00
5978;DHT22;3015;51.390;12.256;2022-08-16T01:45:13;16.20;1.00
5978;DHT22;3015;51.390;12.256;2022-08-16T01:47:39;16.10;1.00
5978;DHT22;3015;51.390;12.256;2022-08-16T01:50:06;16.10;1.00
5978;DHT22;3015;51.390;12.256;2022-08-16T01:52:33;16.10;1.00
5978;DHT22;3015;51.390;12.256;2022-08-16T01:54:59;16.10;1.00
5978;DHT22;3015;51.390;12.256;2022-08-16T01:57:25;16.00;1.00
5978;DHT22;3015;51.390;12.256;2022-08-16T01:59:51;16.00;1.00
5978;DHT22;3015;51.390;12.256;2022-08-16T02:02:17;16.00;1.00
5978;DHT22;3015;51.390;12.256;2022-08-16T02:04:43;15.90;1.00
5978;DHT22;3015;51.390;12.256;2022-08-16T02:07:09;15.90;1.00
5978;DHT22;3015;51.390;12.256;2022-08-16T02:09:38;15.80;1.00
5978;DHT22;3015;51.390;12.256;2022-08-16T02:12:06;16.00;1.00
5978;DHT22;3015;51.390;12.256;2022-08-16T02:14:32;15.90;1.00
5978;DHT22;3015;51.390;12.256;2022-08-16T02:17:01;15.80;1.00
5978;DHT22;3015;51.390;12.256;2022-08-16T02:19:29;15.70;1.00
5978;DHT22;3015;51.390;12.256;2022-08-16T02:21:56;15.70;1.00
5978;DHT22;3015;51.390;12.256;2022-08-16T02:24:22;15.70;1.00
5978;DHT22;3015;51.390;12.256;2022-08-16T02:26:48;15.70;1.00
5978;DHT22;3015;51.390;12.256;2022-08-16T02:29:15;15.70;1.00
5978;DHT22;3015;51.390;12.256;2022-08-16T02:31:47;15.70;1.00
5978;DHT22;3015;51.390;12.256;2022-08-16T02:34:13;15.70;1.00
5978;DHT22;3015;51.390;12.256;2022-08-16T02:36:41;15.70;1.00
5978;DHT22;3015;51.390;12.256;2022-08-16T02:39:08;15.70;1.00
5978;DHT22;3015;51.390;12.256;2022-08-16T02:41:35;15.70;1.00
5978;DHT22;3015;51.390;12.256;2022-08-16T02:44:02;15.70;1.00
5978;DHT22;3015;51.390;12.256;2022-08-16T02:46:28;15.70;1.00
5978;DHT22;3015;51.390;12.256;2022-08-16T02:48:53;15.70;1.00
5978;DHT22;3015;51.390;12.256;2022-08-16T02:51:19;15.60;1.00
5978;DHT22;3015;51.390;12.256;2022-08-16T02:53:46;15.60;1.00
5978;DHT22;3015;51.390;12.256;2022-08-16T02:56:14;15.70;1.00
5978;DHT22;3015;51.390;12.256;2022-08-16T02:58:40;15.60;1.00
5978;DHT22;3015;51.390;12.256;2022-08-16T03:01:07;15.60;1.00
5978;DHT22;3015;51.390;12.256;2022-08-16T03:03:34;15.60;1.00
5978;DHT22;3015;51.390;12.256;2022-08-16T03:06:02;15.60;1.00
5978;DHT22;3015;51.390;12.256;2022-08-16T03:08:28;15.60;1.00
5978;DHT22;3015;51.390;12.256;2022-08-16T03:10:53;15.60;1.00
5978;DHT22;3015;51.390;12.256;2022-08-16T03:13:19;15.50;1.00
5978;DHT22;3015;51.390;12.256;2022-08-16T03:15:46;15.50;1.00
5978;DHT22;3015;51.390;12.256;2022-08-16T03:18:12;15.50;1.00
5978;DHT22;3015;51.390;12.256;2022-08-16T03:20:38;15.60;1.00
5978;DHT22;3015;51.390;12.256;2022-08-16T03:23:05;15.60;1.00
5978;DHT22;3015;51.390;12.256;2022-08-16T03:25:32;15.60;1.00
5978;DHT22;3015;51.390;12.256;2022-08-16T03:27:58;15.50;1.00
5978;DHT22;3015;51.390;12.256;2022-08-16T03:30:28;15.60;1.00
5978;DHT22;3015;51.390;12.256;2022-08-16T03:32:54;15.50;1.00
5978;DHT22;3015;51.390;12.256;2022-08-16T03:35:24;15.50;1.00
5978;DHT22;3015;51.390;12.256;2022-08-16T03:37:58;15.40;1.00
5978;DHT22;3015;51.390;12.256;2022-08-16T03:40:25;15.40;1.00
5978;DHT22;3015;51.390;12.256;2022-08-16T03:42:52;15.40;1.00
5978;DHT22;3015;51.390;12.256;2022-08-16T03:45:18;15.30;1.00
5978;DHT22;3015;51.390;12.256;2022-08-16T03:47:47;15.30;1.00
5978;DHT22;3015;51.390;12.256;2022-08-16T03:50:15;15.30;1.00
5978;DHT22;3015;51.390;12.256;2022-08-16T03:52:41;15.30;1.00
5978;DHT22;3015;51.390;12.256;2022-08-16T03:55:07;15.40;1.00
5978;DHT22;3015;51.390;12.256;2022-08-16T03:57:35;15.30;1.00
5978;DHT22;3015;51.390;12.256;2022-08-16T04:00:07;15.30;1.00
5978;DHT22;3015;51.390;12.256;2022-08-16T04:02:40;15.40;1.00
5978;DHT22;3015;51.390;12.256;2022-08-16T04:05:07;15.30;1.00
5978;DHT22;3015;51.390;12.256;2022-08-16T04:07:32;15.30;1.00
5978;DHT22;3015;51.390;12.256;2022-08-16T04:09:58;15.30;1.00
5978;DHT22;3015;51.390;12.256;2022-08-16T04:12:24;15.40;1.00
5978;DHT22;3015;51.390;12.256;2022-08-16T04:14:49;15.40;1.00
5978;DHT22;3015;51.390;12.256;2022-08-16T04:17:15;15.40;1.00
5978;DHT22;3015;51.390;12.256;2022-08-16T04:19:41;15.40;1.00
5978;DHT22;3015;51.390;12.256;2022-08-16T04:22:09;15.40;1.00
5978;DHT22;3015;51.390;12.256;2022-08-16T04:24:36;15.40;1.00
5978;DHT22;3015;51.390;12.256;2022-08-16T04:27:02;15.40;1.00
5978;DHT22;3015;51.390;12.256;2022-08-16T04:29:28;15.40;1.00
5978;DHT22;3015;51.390;12.256;2022-08-16T04:31:54;15.40;1.00
5978;DHT22;3015;51.390;12.256;2022-08-16T04:34:21;15.50;1.00
5978;DHT22;3015;51.390;12.256;2022-08-16T04:36:47;15.40;1.00
5978;DHT22;3015;51.390;12.256;2022-08-16T04:39:13;15.50;1.00
5978;DHT22;3015;51.390;12.256;2022-08-16T04:41:39;15.60;1.00
5978;DHT22;3015;51.390;12.256;2022-08-16T04:44:04;15.60;1.00
5978;DHT22;3015;51.390;12.256;2022-08-16T04:46:30;15.70;1.00
5978;DHT22;3015;51.390;12.256;2022-08-16T04:48:56;15.70;1.00
5978;DHT22;3015;51.390;12.256;2022-08-16T04:51:22;15.80;1.00
5978;DHT22;3015;51.390;12.256;2022-08-16T04:53:48;15.90;1.00
5978;DHT22;3015;51.390;12.256;2022-08-16T04:56:15;15.90;1.00
5978;DHT22;3015;51.390;12.256;2022-08-16T04:58:42;16.00;1.00
5978;DHT22;3015;51.390;12.256;2022-08-16T05:01:07;16.10;1.00
5978;DHT22;3015;51.390;12.256;2022-08-16T05:03:33;16.20;1.00
5978;DHT22;3015;51.390;12.256;2022-08-16T05:05:59;16.20;1.00
5978;DHT22;3015;51.390;12.256;2022-08-16T05:08:25;16.30;1.00
5978;DHT22;3015;51.390;12.256;2022-08-16T05:10:51;16.40;1.00
5978;DHT22;3015;51.390;12.256;2022-08-16T05:13:17;16.60;1.00
5978;DHT22;3015;51.390;12.256;2022-08-16T05:15:44;16.60;1.00
5978;DHT22;3015;51.390;12.256;2022-08-16T05:18:10;16.60;1.00
5978;DHT22;3015;51.390;12.256;2022-08-16T05:20:35;16.70;1.00
5978;DHT22;3015;51.390;12.256;2022-08-16T05:23:01;16.80;1.00
5978;DHT22;3015;51.390;12.256;2022-08-16T05:25:27;17.00;1.00
5978;DHT22;3015;51.390;12.256;2022-08-16T05:27:53;17.20;1.00
5978;DHT22;3015;51.390;12.256;2022-08-16T05:30:20;17.30;1.00
5978;DHT22;3015;51.390;12.256;2022-08-16T05:32:45;17.40;1.00
5978;DHT22;3015;51.390;12.256;2022-08-16T05:35:11;17.50;1.00
5978;DHT22;3015;51.390;12.256;2022-08-16T05:37:39;17.70;1.00
5978;DHT22;3015;51.390;12.256;2022-08-16T05:40:07;17.80;1.00
5978;DHT22;3015;51.390;12.256;2022-08-16T05:42:33;17.90;1.00
5978;DHT22;3015;51.390;12.256;2022-08-16T05:44:59;17.90;1.00
5978;DHT22;3015;51.390;12.256;2022-08-16T05:47:26;18.00;1.00
5978;DHT22;3015;51.390;12.256;2022-08-16T05:49:51;18.20;1.00
5978;DHT22;3015;51.390;12.256;2022-08-16T05:52:18;18.20;99.90
5978;DHT22;3015;51.390;12.256;2022-08-16T05:54:44;18.30;99.90
5978;DHT22;3015;51.390;12.256;2022-08-16T05:57:09;18.40;99.90
5978;DHT22;3015;51.390;12.256;2022-08-16T05:59:35;18.50;99.90
5978;DHT22;3015;51.390;12.256;2022-08-16T06:02:02;18.60;1.00
5978;DHT22;3015;51.390;12.256;2022-08-16T06:04:28;18.80;99.90
5978;DHT22;3015;51.390;12.256;2022-08-16T06:06:54;18.90;52.90
5978;DHT22;3015;51.390;12.256;2022-08-16T06:09:20;19.10;1.00
5978;DHT22;3015;51.390;12.256;2022-08-16T06:11:45;19.20;99.90
5978;DHT22;3015;51.390;12.256;2022-08-16T06:14:12;19.40;43.10
5978;DHT22;3015;51.390;12.256;2022-08-16T06:16:37;19.50;1.00
5978;DHT22;3015;51.390;12.256;2022-08-16T06:19:03;19.70;1.00
5978;DHT22;3015;51.390;12.256;2022-08-16T06:21:29;19.80;99.90
5978;DHT22;3015;51.390;12.256;2022-08-16T06:23:55;19.90;99.90
5978;DHT22;3015;51.390;12.256;2022-08-16T06:26:21;20.10;99.90
5978;DHT22;3015;51.390;12.256;2022-08-16T06:28:48;20.10;99.90
5978;DHT22;3015;51.390;12.256;2022-08-16T06:31:15;20.30;99.90
5978;DHT22;3015;51.390;12.256;2022-08-16T06:33:41;20.50;1.00
5978;DHT22;3015;51.390;12.256;2022-08-16T06:36:08;20.50;99.90
5978;DHT22;3015;51.390;12.256;2022-08-16T06:38:35;20.60;99.90
5978;DHT22;3015;51.390;12.256;2022-08-16T06:41:02;20.80;99.90
5978;DHT22;3015;51.390;12.256;2022-08-16T06:43:28;21.00;99.90
5978;DHT22;3015;51.390;12.256;2022-08-16T06:45:54;21.10;1.00
5978;DHT22;3015;51.390;12.256;2022-08-16T06:48:20;21.30;99.90
5978;DHT22;3015;51.390;12.256;2022-08-16T06:50:46;21.40;99.90
5978;DHT22;3015;51.390;12.256;2022-08-16T06:53:17;21.60;99.90
5978;DHT22;3015;51.390;12.256;2022-08-16T06:55:43;21.80;31.60
5978;DHT22;3015;51.390;12.256;2022-08-16T06:58:09;21.90;1.00
5978;DHT22;3015;51.390;12.256;2022-08-16T07:00:36;22.10;1.00
5978;DHT22;3015;51.390;12.256;2022-08-16T07:03:03;22.30;1.00
5978;DHT22;3015;51.390;12.256;2022-08-16T07:05:29;22.70;1.00
5978;DHT22;3015;51.390;12.256;2022-08-16T07:07:56;23.30;1.00
5978;DHT22;3015;51.390;12.256;2022-08-16T07:10:23;23.80;99.90
5978;DHT22;3015;51.390;12.256;2022-08-16T07:12:49;24.20;99.90
5978;DHT22;3015;51.390;12.256;2022-08-16T07:15:19;24.80;99.90
5978;DHT22;3015;51.390;12.256;2022-08-16T07:17:45;25.30;99.90
5978;DHT22;3015;51.390;12.256;2022-08-16T07:20:12;25.90;99.90
5978;DHT22;3015;51.390;12.256;2022-08-16T07:22:39;26.30;99.90
5978;DHT22;3015;51.390;12.256;2022-08-16T07:25:08;26.60;99.90
5978;DHT22;3015;51.390;12.256;2022-08-16T07:27:34;27.30;99.90
5978;DHT22;3015;51.390;12.256;2022-08-16T07:30:00;28.10;99.90
5978;DHT22;3015;51.390;12.256;2022-08-16T07:32:26;28.50;99.90
5978;DHT22;3015;51.390;12.256;2022-08-16T07:34:52;28.80;99.90
5978;DHT22;3015;51.390;12.256;2022-08-16T07:37:17;29.00;99.90
5978;DHT22;3015;51.390;12.256;2022-08-16T07:39:43;29.30;99.90
5978;DHT22;3015;51.390;12.256;2022-08-16T07:42:10;29.80;99.90
5978;DHT22;3015;51.390;12.256;2022-08-16T07:44:36;30.10;99.90
5978;DHT22;3015;51.390;12.256;2022-08-16T07:47:01;30.80;99.90
5978;DHT22;3015;51.390;12.256;2022-08-16T07:49:27;31.30;99.90
5978;DHT22;3015;51.390;12.256;2022-08-16T07:51:53;31.90;99.90
5978;DHT22;3015;51.390;12.256;2022-08-16T07:54:18;32.00;99.90
5978;DHT22;3015;51.390;12.256;2022-08-16T07:56:45;32.50;99.90
5978;DHT22;3015;51.390;12.256;2022-08-16T07:59:11;33.10;99.90
5978;DHT22;3015;51.390;12.256;2022-08-16T08:01:36;33.50;99.90
5978;DHT22;3015;51.390;12.256;2022-08-16T08:04:03;33.50;99.90
5978;DHT22;3015;51.390;12.256;2022-08-16T08:06:30;33.50;99.90
5978;DHT22;3015;51.390;12.256;2022-08-16T08:08:58;34.00;99.90
5978;DHT22;3015;51.390;12.256;2022-08-16T08:11:24;34.40;99.90
5978;DHT22;3015;51.390;12.256;2022-08-16T08:13:51;34.00;99.90
5978;DHT22;3015;51.390;12.256;2022-08-16T08:16:18;34.70;99.90
5978;DHT22;3015;51.390;12.256;2022-08-16T08:18:47;35.40;99.90
5978;DHT22;3015;51.390;12.256;2022-08-16T08:21:13;35.60;99.90
5978;DHT22;3015;51.390;12.256;2022-08-16T08:23:38;35.80;99.90
5978;DHT22;3015;51.390;12.256;2022-08-16T08:26:04;36.10;99.90
5978;DHT22;3015;51.390;12.256;2022-08-16T08:28:31;36.50;99.90
5978;DHT22;3015;51.390;12.256;2022-08-16T08:30:58;36.70;99.90
5978;DHT22;3015;51.390;12.256;2022-08-16T08:33:24;36.50;99.90
5978;DHT22;3015;51.390;12.256;2022-08-16T08:35:50;36.80;99.90
5978;DHT22;3015;51.390;12.256;2022-08-16T08:38:16;36.80;99.90
5978;DHT22;3015;51.390;12.256;2022-08-16T08:40:42;37.10;99.90
5978;DHT22;3015;51.390;12.256;2022-08-16T08:43:09;38.00;99.90
5978;DHT22;3015;51.390;12.256;2022-08-16T08:45:38;37.70;99.90
5978;DHT22;3015;51.390;12.256;2022-08-16T08:48:04;37.90;99.90
5978;DHT22;3015;51.390;12.256;2022-08-16T08:50:29;37.90;99.90
5978;DHT22;3015;51.390;12.256;2022-08-16T08:52:55;37.70;99.90
5978;DHT22;3015;51.390;12.256;2022-08-16T08:55:21;37.70;99.90
5978;DHT22;3015;51.390;12.256;2022-08-16T08:57:48;37.60;99.90
5978;DHT22;3015;51.390;12.256;2022-08-16T09:00:21;37.10;99.90
5978;DHT22;3015;51.390;12.256;2022-08-16T09:02:48;36.70;99.90
5978;DHT22;3015;51.390;12.256;2022-08-16T09:05:15;37.00;99.90
5978;DHT22;3015;51.390;12.256;2022-08-16T09:07:43;37.70;99.90
5978;DHT22;3015;51.390;12.256;2022-08-16T09:10:09;38.20;99.90
5978;DHT22;3015;51.390;12.256;2022-08-16T09:12:35;38.30;99.90
5978;DHT22;3015;51.390;12.256;2022-08-16T09:15:01;38.60;99.90
5978;DHT22;3015;51.390;12.256;2022-08-16T09:17:28;39.30;99.90
5978;DHT22;3015;51.390;12.256;2022-08-16T09:19:53;39.20;99.90
5978;DHT22;3015;51.390;12.256;2022-08-16T09:22:24;39.70;99.90
5978;DHT22;3015;51.390;12.256;2022-08-16T09:24:50;38.90;99.90
5978;DHT22;3015;51.390;12.256;2022-08-16T09:27:16;38.10;99.90
5978;DHT22;3015;51.390;12.256;2022-08-16T09:29:43;38.30;99.90
5978;DHT22;3015;51.390;12.256;2022-08-16T09:32:09;37.90;99.90
5978;DHT22;3015;51.390;12.256;2022-08-16T09:34:35;38.30;99.90
5978;DHT22;3015;51.390;12.256;2022-08-16T09:37:01;38.90;99.90
5978;DHT22;3015;51.390;12.256;2022-08-16T09:39:27;39.00;99.90
5978;DHT22;3015;51.390;12.256;2022-08-16T09:41:53;39.10;99.90
5978;DHT22;3015;51.390;12.256;2022-08-16T09:44:25;39.50;99.90
5978;DHT22;3015;51.390;12.256;2022-08-16T09:46:51;39.00;99.90
5978;DHT22;3015;51.390;12.256;2022-08-16T09:49:18;39.40;99.90
5978;DHT22;3015;51.390;12.256;2022-08-16T09:51:46;39.60;99.90
5978;DHT22;3015;51.390;12.256;2022-08-16T09:54:12;39.10;99.90
5978;DHT22;3015;51.390;12.256;2022-08-16T09:56:40;39.20;99.90
5978;DHT22;3015;51.390;12.256;2022-08-16T09:59:07;39.20;99.90
5978;DHT22;3015;51.390;12.256;2022-08-16T10:01:37;39.20;99.90
5978;DHT22;3015;51.390;12.256;2022-08-16T10:04:03;39.80;99.90
5978;DHT22;3015;51.390;12.256;2022-08-16T10:06:30;39.20;99.90
5978;DHT22;3015;51.390;12.256;2022-08-16T10:08:55;39.40;99.90
5978;DHT22;3015;51.390;12.256;2022-08-16T10:11:21;39.30;99.90
5978;DHT22;3015;51.390;12.256;2022-08-16T10:14:05;39.60;99.90
5978;DHT22;3015;51.390;12.256;2022-08-16T10:16:31;39.60;99.90
5978;DHT22;3015;51.390;12.256;2022-08-16T10:18:58;39.70;99.90
5978;DHT22;3015;51.390;12.256;2022-08-16T10:21:25;39.60;99.90
5978;DHT22;3015;51.390;12.256;2022-08-16T10:23:51;39.50;99.90
5978;DHT22;3015;51.390;12.256;2022-08-16T10:26:21;39.60;99.90
5978;DHT22;3015;51.390;12.256;2022-08-16T10:28:49;39.50;99.90
5978;DHT22;3015;51.390;12.256;2022-08-16T10:31:14;39.10;99.90
5978;DHT22;3015;51.390;12.256;2022-08-16T10:33:40;39.10;99.90
5978;DHT22;3015;51.390;12.256;2022-08-16T10:36:07;39.00;99.90
5978;DHT22;3015;51.390;12.256;2022-08-16T10:38:35;38.50;99.90
5978;DHT22;3015;51.390;12.256;2022-08-16T10:41:02;38.90;99.90
5978;DHT22;3015;51.390;12.256;2022-08-16T10:43:28;39.20;99.90
5978;DHT22;3015;51.390;12.256;2022-08-16T10:45:53;39.60;99.90
5978;DHT22;3015;51.390;12.256;2022-08-16T10:48:19;39.50;99.90
5978;DHT22;3015;51.390;12.256;2022-08-16T10:50:45;39.10;99.90
5978;DHT22;3015;51.390;12.256;2022-08-16T10:53:11;39.30;99.90
5978;DHT22;3015;51.390;12.256;2022-08-16T10:55:40;39.00;99.90
5978;DHT22;3015;51.390;12.256;2022-08-16T10:58:08;38.90;99.90
5978;DHT22;3015;51.390;12.256;2022-08-16T11:00:36;38.90;99.90
5978;DHT22;3015;51.390;12.256;2022-08-16T11:03:04;38.60;99.90
5978;DHT22;3015;51.390;12.256;2022-08-16T11:05:35;37.80;99.90
5978;DHT22;3015;51.390;12.256;2022-08-16T11:08:02;37.90;99.90
5978;DHT22;3015;51.390;12.256;2022-08-16T11:10:33;37.00;99.90
5978;DHT22;3015;51.390;12.256;2022-08-16T11:12:59;37.10;99.90
5978;DHT22;3015;51.390;12.256;2022-08-16T11:15:26;36.90;99.90
5978;DHT22;3015;51.390;12.256;2022-08-16T11:17:53;36.50;99.90
5978;DHT22;3015;51.390;12.256;2022-08-16T11:20:20;36.00;99.90
5978;DHT22;3015;51.390;12.256;2022-08-16T11:22:46;35.80;99.90
5978;DHT22;3015;51.390;12.256;2022-08-16T11:25:15;35.40;99.90
5978;DHT22;3015;51.390;12.256;2022-08-16T11:27:41;35.10;99.90
5978;DHT22;3015;51.390;12.256;2022-08-16T11:30:08;35.10;99.90
5978;DHT22;3015;51.390;12.256;2022-08-16T11:32:35;35.70;99.90
5978;DHT22;3015;51.390;12.256;2022-08-16T11:35:06;35.90;99.90
5978;DHT22;3015;51.390;12.256;2022-08-16T11:37:33;37.00;99.90
5978;DHT22;3015;51.390;12.256;2022-08-16T11:40:00;37.80;99.90
5978;DHT22;3015;51.390;12.256;2022-08-16T11:42:25;37.90;99.90
5978;DHT22;3015;51.390;12.256;2022-08-16T11:44:51;37.60;99.90
5978;DHT22;3015;51.390;12.256;2022-08-16T11:47:17;37.80;99.90
5978;DHT22;3015;51.390;12.256;2022-08-16T11:49:42;37.70;99.90
5978;DHT22;3015;51.390;12.256;2022-08-16T11:52:08;38.00;99.90
5978;DHT22;3015;51.390;12.256;2022-08-16T11:54:34;37.80;99.90
5978;DHT22;3015;51.390;12.256;2022-08-16T11:57:00;37.80;99.90
5978;DHT22;3015;51.390;12.256;2022-08-16T11:59:26;37.90;99.90
5978;DHT22;3015;51.390;12.256;2022-08-16T12:01:57;38.30;99.90
5978;DHT22;3015;51.390;12.256;2022-08-16T12:04:23;38.80;99.90
5978;DHT22;3015;51.390;12.256;2022-08-16T12:06:49;38.10;99.90
5978;DHT22;3015;51.390;12.256;2022-08-16T12:09:14;38.00;99.90
5978;DHT22;3015;51.390;12.256;2022-08-16T12:11:40;38.20;99.90
5978;DHT22;3015;51.390;12.256;2022-08-16T12:14:06;38.60;99.90
5978;DHT22;3015;51.390;12.256;2022-08-16T12:16:33;38.70;99.90
5978;DHT22;3015;51.390;12.256;2022-08-16T12:18:59;38.00;99.90
5978;DHT22;3015;51.390;12.256;2022-08-16T12:21:24;37.50;99.90
5978;DHT22;3015;51.390;12.256;2022-08-16T12:23:50;37.90;99.90
5978;DHT22;3015;51.390;12.256;2022-08-16T12:26:16;38.60;99.90
5978;DHT22;3015;51.390;12.256;2022-08-16T12:28:42;38.90;99.90
5978;DHT22;3015;51.390;12.256;2022-08-16T12:31:08;38.50;99.90
5978;DHT22;3015;51.390;12.256;2022-08-16T12:33:33;37.70;99.90
5978;DHT22;3015;51.390;12.256;2022-08-16T12:35:59;37.40;99.90
5978;DHT22;3015;51.390;12.256;2022-08-16T12:38:26;37.10;99.90
5978;DHT22;3015;51.390;12.256;2022-08-16T12:40:51;37.60;99.90
5978;DHT22;3015;51.390;12.256;2022-08-16T12:43:18;37.50;99.90
5978;DHT22;3015;51.390;12.256;2022-08-16T12:45:48;38.20;99.90
5978;DHT22;3015;51.390;12.256;2022-08-16T12:48:16;38.20;99.90
5978;DHT22;3015;51.390;12.256;2022-08-16T12:51:11;38.50;99.90
5978;DHT22;3015;51.390;12.256;2022-08-16T12:53:38;38.50;99.90
5978;DHT22;3015;51.390;12.256;2022-08-16T12:56:04;37.90;99.90
5978;DHT22;3015;51.390;12.256;2022-08-16T12:58:30;37.50;99.90
5978;DHT22;3015;51.390;12.256;2022-08-16T13:00:58;37.80;99.90
5978;DHT22;3015;51.390;12.256;2022-08-16T13:03:24;38.20;99.90
5978;DHT22;3015;51.390;12.256;2022-08-16T13:05:50;37.90;99.90
5978;DHT22;3015;51.390;12.256;2022-08-16T13:08:17;37.50;99.90
5978;DHT22;3015;51.390;12.256;2022-08-16T13:10:46;37.80;99.90
5978;DHT22;3015;51.390;12.256;2022-08-16T13:13:18;37.70;99.90
5978;DHT22;3015;51.390;12.256;2022-08-16T13:15:55;37.90;99.90
5978;DHT22;3015;51.390;12.256;2022-08-16T13:18:22;37.20;99.90
5978;DHT22;3015;51.390;12.256;2022-08-16T13:20:49;36.60;99.90
5978;DHT22;3015;51.390;12.256;2022-08-16T13:23:15;36.60;99.90
5978;DHT22;3015;51.390;12.256;2022-08-16T13:25:43;36.90;99.90
5978;DHT22;3015;51.390;12.256;2022-08-16T13:28:11;37.10;99.90
5978;DHT22;3015;51.390;12.256;2022-08-16T13:30:43;37.60;99.90
5978;DHT22;3015;51.390;12.256;2022-08-16T13:33:16;38.40;99.90
5978;DHT22;3015;51.390;12.256;2022-08-16T13:35:46;38.30;99.90
5978;DHT22;3015;51.390;12.256;2022-08-16T13:38:12;38.60;99.90
5978;DHT22;3015;51.390;12.256;2022-08-16T13:40:38;38.20;99.60
5978;DHT22;3015;51.390;12.256;2022-08-16T13:43:04;38.00;99.40
5978;DHT22;3015;51.390;12.256;2022-08-16T13:45:30;38.10;99.90
5978;DHT22;3015;51.390;12.256;2022-08-16T13:47:57;38.10;99.40
5978;DHT22;3015;51.390;12.256;2022-08-16T13:50:23;38.30;99.10
5978;DHT22;3015;51.390;12.256;2022-08-16T13:52:50;38.10;99.30
5978;DHT22;3015;51.390;12.256;2022-08-16T13:55:16;38.00;99.00
5978;DHT22;3015;51.390;12.256;2022-08-16T13:57:42;38.00;98.30
5978;DHT22;3015;51.390;12.256;2022-08-16T14:00:08;38.30;98.50
5978;DHT22;3015;51.390;12.256;2022-08-16T14:02:35;38.40;98.40
5978;DHT22;3015;51.390;12.256;2022-08-16T14:05:01;38.20;98.60
5978;DHT22;3015;51.390;12.256;2022-08-16T14:07:28;37.80;98.50
5978;DHT22;3015;51.390;12.256;2022-08-16T14:09:54;37.50;98.00
5978;DHT22;3015;51.390;12.256;2022-08-16T14:12:25;36.80;98.90
5978;DHT22;3015;51.390;12.256;2022-08-16T14:14:52;36.50;98.60
5978;DHT22;3015;51.390;12.256;2022-08-16T14:17:19;36.00;88.60
5978;DHT22;3015;51.390;12.256;2022-08-16T14:19:47;36.10;99.20
5978;DHT22;3015;51.390;12.256;2022-08-16T14:22:28;36.40;98.80
5978;DHT22;3015;51.390;12.256;2022-08-16T14:24:56;36.80;99.00
5978;DHT22;3015;51.390;12.256;2022-08-16T14:27:27;36.50;98.80
5978;DHT22;3015;51.390;12.256;2022-08-16T14:29:55;36.30;98.70
5978;DHT22;3015;51.390;12.256;2022-08-16T14:32:24;36.20;99.30
5978;DHT22;3015;51.390;12.256;2022-08-16T14:34:50;36.40;99.00
5978;DHT22;3015;51.390;12.256;2022-08-16T14:37:16;36.50;98.20
5978;DHT22;3015;51.390;12.256;2022-08-16T14:39:42;36.50;97.90
5978;DHT22;3015;51.390;12.256;2022-08-16T14:42:20;36.20;97.70
5978;DHT22;3015;51.390;12.256;2022-08-16T14:44:47;35.60;97.90
5978;DHT22;3015;51.390;12.256;2022-08-16T14:47:13;35.50;98.60
5978;DHT22;3015;51.390;12.256;2022-08-16T14:49:40;35.20;98.10
5978;DHT22;3015;51.390;12.256;2022-08-16T14:52:11;35.10;98.00
5978;DHT22;3015;51.390;12.256;2022-08-16T14:54:38;34.90;97.90
5978;DHT22;3015;51.390;12.256;2022-08-16T14:57:05;35.00;98.00
5978;DHT22;3015;51.390;12.256;2022-08-16T14:59:31;35.50;98.70
5978;DHT22;3015;51.390;12.256;2022-08-16T15:01:57;36.00;97.70
5978;DHT22;3015;51.390;12.256;2022-08-16T15:04:24;36.10;97.80
5978;DHT22;3015;51.390;12.256;2022-08-16T15:06:49;36.20;97.80
5978;DHT22;3015;51.390;12.256;2022-08-16T15:09:16;36.50;97.50
5978;DHT22;3015;51.390;12.256;2022-08-16T15:11:41;36.40;98.10
5978;DHT22;3015;51.390;12.256;2022-08-16T15:14:07;36.70;97.90
5978;DHT22;3015;51.390;12.256;2022-08-16T15:16:34;36.90;97.20
5978;DHT22;3015;51.390;12.256;2022-08-16T15:19:00;37.10;96.80
5978;DHT22;3015;51.390;12.256;2022-08-16T15:21:27;37.20;97.30
5978;DHT22;3015;51.390;12.256;2022-08-16T15:23:53;36.80;96.70
5978;DHT22;3015;51.390;12.256;2022-08-16T15:26:20;36.30;96.90
5978;DHT22;3015;51.390;12.256;2022-08-16T15:28:45;35.80;96.40
5978;DHT22;3015;51.390;12.256;2022-08-16T15:31:11;35.20;96.60
5978;DHT22;3015;51.390;12.256;2022-08-16T15:33:43;34.90;96.30
5978;DHT22;3015;51.390;12.256;2022-08-16T15:36:09;34.60;99.90
5978;DHT22;3015;51.390;12.256;2022-08-16T15:38:38;34.60;97.10
5978;DHT22;3015;51.390;12.256;2022-08-16T15:41:04;35.10;97.20
5978;DHT22;3015;51.390;12.256;2022-08-16T15:43:30;35.30;97.20
5978;DHT22;3015;51.390;12.256;2022-08-16T15:45:56;35.70;97.50
5978;DHT22;3015;51.390;12.256;2022-08-16T15:48:40;35.70;97.20
5978;DHT22;3015;51.390;12.256;2022-08-16T15:51:06;35.40;97.30
5978;DHT22;3015;51.390;12.256;2022-08-16T15:53:33;35.40;97.70